sensor_id;sensor_type;location;lat;lon;timestamp;P1;durP1;ratioP1;P2;durP2;ratioP2
43457;SDS011;29046;54.184;18.680;2023-10-13T00:02:02;11.32;;;2.55;;
43457;SDS011;29046;54.184;18.680;2023-10-13T00:04:32;8.82;;;2.20;;
43457;SDS011;29046;54.184;18.680;2023-10-13T00:07:03;7.57;;;2.08;;
43457;SDS011;29046;54.184;18.680;2023-10-13T00:09:31;11.82;;;2.78;;
43457;SDS011;29046;54.184;18.680;2023-10-13T00:11:59;7.45;;;2.72;;
43457;SDS011;29046;54.184;18.680;2023-10-13T00:14:27;11.25;;;3.47;;
43457;SDS011;29046;54.184;18.680;2023-10-13T00:17:02;9.88;;;2.88;;
43457;SDS011;29046;54.184;18.680;2023-10-13T00:19:34;10.90;;;2.92;;
43457;SDS011;29046;54.184;18.680;2023-10-13T00:22:11;13.18;;;2.45;;
43457;SDS011;29046;54.184;18.680;2023-10-13T00:24:39;14.27;;;3.30;;
43457;SDS011;29046;54.184;18.680;2023-10-13T00:27:18;8.18;;;2.35;;
43457;SDS011;29046;54.184;18.680;2023-10-13T00:30:07;5.53;;;1.83;;
43457;SDS011;29046;54.184;18.680;2023-10-13T00:32:45;15.77;;;3.20;;
43457;SDS011;29046;54.184;18.680;2023-10-13T00:35:23;13.27;;;2.83;;
43457;SDS011;29046;54.184;18.680;2023-10-13T00:38:03;7.55;;;2.33;;
43457;SDS011;29046;54.184;18.680;2023-10-13T00:40:39;8.27;;;2.67;;
43457;SDS011;29046;54.184;18.680;2023-10-13T00:43:20;11.35;;;2.03;;
43457;SDS011;29046;54.184;18.680;2023-10-13T00:45:55;7.05;;;1.75;;
43457;SDS011;29046;54.184;18.680;2023-10-13T00:48:36;9.70;;;2.13;;
43457;SDS011;29046;54.184;18.680;2023-10-13T00:51:24;7.82;;;2.17;;
43457;SDS011;29046;54.184;18.680;2023-10-13T00:54:07;12.25;;;2.10;;
43457;SDS011;29046;54.184;18.680;2023-10-13T00:56:39;8.63;;;2.35;;
43457;SDS011;29046;54.184;18.680;2023-10-13T00:59:14;12.73;;;3.13;;
43457;SDS011;29046;54.184;18.680;2023-10-13T01:01:41;10.38;;;2.50;;
43457;SDS011;29046;54.184;18.680;2023-10-13T01:04:12;9.80;;;2.78;;
43457;SDS011;29046;54.184;18.680;2023-10-13T01:06:41;8.75;;;2.10;;
43457;SDS011;29046;54.184;18.680;2023-10-13T01:09:10;16.20;;;2.75;;
43457;SDS011;29046;54.184;18.680;2023-10-13T01:11:40;12.75;;;3.28;;
43457;SDS011;29046;54.184;18.680;2023-10-13T01:14:11;13.38;;;3.08;;
43457;SDS011;29046;54.184;18.680;2023-10-13T01:16:41;9.45;;;2.40;;
43457;SDS011;29046;54.184;18.680;2023-10-13T01:19:13;7.35;;;2.00;;
43457;SDS011;29046;54.184;18.680;2023-10-13T01:21:44;14.00;;;2.45;;
43457;SDS011;29046;54.184;18.680;2023-10-13T01:24:12;7.32;;;2.67;;
43457;SDS011;29046;54.184;18.680;2023-10-13T01:26:40;9.90;;;2.33;;
43457;SDS011;29046;54.184;18.680;2023-10-13T01:29:09;3.60;;;1.80;;
43457;SDS011;29046;54.184;18.680;2023-10-13T01:31:41;10.68;;;2.70;;
43457;SDS011;29046;54.184;18.680;2023-10-13T01:34:16;10.05;;;2.90;;
43457;SDS011;29046;54.184;18.680;2023-10-13T01:36:51;5.88;;;2.55;;
43457;SDS011;29046;54.184;18.680;2023-10-13T01:39:20;12.63;;;2.15;;
43457;SDS011;29046;54.184;18.680;2023-10-13T01:41:53;9.80;;;2.47;;
43457;SDS011;29046;54.184;18.680;2023-10-13T01:44:26;8.30;;;2.00;;
43457;SDS011;29046;54.184;18.680;2023-10-13T01:46:58;7.72;;;2.33;;
43457;SDS011;29046;54.184;18.680;2023-10-13T01:49:26;9.52;;;1.85;;
43457;SDS011;29046;54.184;18.680;2023-10-13T01:51:53;15.48;;;3.08;;
43457;SDS011;29046;54.184;18.680;2023-10-13T01:54:21;6.90;;;2.08;;
43457;SDS011;29046;54.184;18.680;2023-10-13T01:56:49;7.43;;;2.25;;
43457;SDS011;29046;54.184;18.680;2023-10-13T01:59:17;8.18;;;1.98;;
43457;SDS011;29046;54.184;18.680;2023-10-13T02:01:45;9.60;;;2.42;;
43457;SDS011;29046;54.184;18.680;2023-10-13T02:04:13;11.60;;;2.00;;
43457;SDS011;29046;54.184;18.680;2023-10-13T02:06:41;12.07;;;2.78;;
43457;SDS011;29046;54.184;18.680;2023-10-13T02:09:10;10.50;;;1.98;;
43457;SDS011;29046;54.184;18.680;2023-10-13T02:11:44;10.70;;;2.40;;
43457;SDS011;29046;54.184;18.680;2023-10-13T02:14:21;7.93;;;2.17;;
43457;SDS011;29046;54.184;18.680;2023-10-13T02:16:49;9.05;;;2.40;;
43457;SDS011;29046;54.184;18.680;2023-10-13T02:19:17;11.40;;;2.30;;
43457;SDS011;29046;54.184;18.680;2023-10-13T02:21:46;8.20;;;2.88;;
43457;SDS011;29046;54.184;18.680;2023-10-13T02:24:25;4.70;;;1.17;;
43457;SDS011;29046;54.184;18.680;2023-10-13T02:26:56;7.75;;;1.67;;
43457;SDS011;29046;54.184;18.680;2023-10-13T02:29:30;6.78;;;2.15;;
43457;SDS011;29046;54.184;18.680;2023-10-13T02:32:05;11.90;;;2.72;;
43457;SDS011;29046;54.184;18.680;2023-10-13T02:34:39;7.40;;;2.10;;
43457;SDS011;29046;54.184;18.680;2023-10-13T02:37:11;13.30;;;2.42;;
43457;SDS011;29046;54.184;18.680;2023-10-13T02:39:40;8.32;;;2.63;;
43457;SDS011;29046;54.184;18.680;2023-10-13T02:42:08;7.45;;;1.55;;
43457;SDS011;29046;54.184;18.680;2023-10-13T02:44:51;13.98;;;2.83;;
43457;SDS011;29046;54.184;18.680;2023-10-13T02:47:24;13.38;;;2.83;;
43457;SDS011;29046;54.184;18.680;2023-10-13T02:49:54;5.07;;;1.77;;
43457;SDS011;29046;54.184;18.680;2023-10-13T02:52:21;17.17;;;2.70;;
43457;SDS011;29046;54.184;18.680;2023-10-13T02:54:52;6.55;;;1.25;;
43457;SDS011;29046;54.184;18.680;2023-10-13T02:57:19;4.45;;;1.98;;
43457;SDS011;29046;54.184;18.680;2023-10-13T02:59:49;11.73;;;2.22;;
43457;SDS011;29046;54.184;18.680;2023-10-13T03:02:23;11.43;;;3.25;;
43457;SDS011;29046;54.184;18.680;2023-10-13T03:04:54;11.25;;;2.25;;
43457;SDS011;29046;54.184;18.680;2023-10-13T03:09:58;12.02;;;2.65;;
43457;SDS011;29046;54.184;18.680;2023-10-13T03:12:27;12.93;;;1.77;;
43457;SDS011;29046;54.184;18.680;2023-10-13T03:15:00;6.68;;;1.88;;
43457;SDS011;29046;54.184;18.680;2023-10-13T03:17:44;1.77;;;1.00;;
43457;SDS011;29046;54.184;18.680;2023-10-13T03:20:13;13.73;;;2.60;;
43457;SDS011;29046;54.184;18.680;2023-10-13T03:22:43;8.30;;;2.53;;
43457;SDS011;29046;54.184;18.680;2023-10-13T03:25:14;6.82;;;2.75;;
43457;SDS011;29046;54.184;18.680;2023-10-13T03:27:50;5.25;;;1.80;;
43457;SDS011;29046;54.184;18.680;2023-10-13T03:30:19;6.18;;;2.58;;
43457;SDS011;29046;54.184;18.680;2023-10-13T03:32:56;3.20;;;1.38;;
43457;SDS011;29046;54.184;18.680;2023-10-13T03:35:24;19.45;;;2.97;;
43457;SDS011;29046;54.184;18.680;2023-10-13T03:37:54;9.55;;;2.05;;
43457;SDS011;29046;54.184;18.680;2023-10-13T03:40:22;7.15;;;2.17;;
43457;SDS011;29046;54.184;18.680;2023-10-13T03:42:51;8.98;;;2.58;;
43457;SDS011;29046;54.184;18.680;2023-10-13T03:45:39;13.45;;;3.72;;
43457;SDS011;29046;54.184;18.680;2023-10-13T03:48:13;2.83;;;1.60;;
43457;SDS011;29046;54.184;18.680;2023-10-13T03:50:54;22.45;;;4.07;;
43457;SDS011;29046;54.184;18.680;2023-10-13T03:53:37;6.43;;;2.80;;
43457;SDS011;29046;54.184;18.680;2023-10-13T03:56:25;7.53;;;2.67;;
43457;SDS011;29046;54.184;18.680;2023-10-13T03:58:59;9.35;;;2.78;;
43457;SDS011;29046;54.184;18.680;2023-10-13T04:01:31;8.75;;;2.35;;
43457;SDS011;29046;54.184;18.680;2023-10-13T04:04:10;9.15;;;2.67;;
43457;SDS011;29046;54.184;18.680;2023-10-13T04:06:39;6.13;;;3.88;;
43457;SDS011;29046;54.184;18.680;2023-10-13T04:09:16;11.55;;;2.45;;
43457;SDS011;29046;54.184;18.680;2023-10-13T04:14:37;5.15;;;2.45;;
43457;SDS011;29046;54.184;18.680;2023-10-13T04:17:24;17.63;;;3.35;;
43457;SDS011;29046;54.184;18.680;2023-10-13T04:19:57;6.10;;;2.20;;
43457;SDS011;29046;54.184;18.680;2023-10-13T04:22:35;12.43;;;2.88;;
43457;SDS011;29046;54.184;18.680;2023-10-13T04:25:16;4.50;;;2.17;;
43457;SDS011;29046;54.184;18.680;2023-10-13T04:28:07;6.60;;;2.28;;
43457;SDS011;29046;54.184;18.680;2023-10-13T04:30:47;9.00;;;2.75;;
43457;SDS011;29046;54.184;18.680;2023-10-13T04:33:29;5.97;;;2.20;;
43457;SDS011;29046;54.184;18.680;2023-10-13T04:38:44;2.47;;;1.60;;
43457;SDS011;29046;54.184;18.680;2023-10-13T04:41:27;8.47;;;2.90;;
43457;SDS011;29046;54.184;18.680;2023-10-13T04:43:59;4.03;;;2.45;;
43457;SDS011;29046;54.184;18.680;2023-10-13T04:46:53;7.22;;;2.65;;
43457;SDS011;29046;54.184;18.680;2023-10-13T04:49:38;6.10;;;2.25;;
43457;SDS011;29046;54.184;18.680;2023-10-13T04:52:25;2.97;;;1.17;;
43457;SDS011;29046;54.184;18.680;2023-10-13T04:55:05;11.10;;;3.55;;
43457;SDS011;29046;54.184;18.680;2023-10-13T04:58:03;12.82;;;3.72;;
43457;SDS011;29046;54.184;18.680;2023-10-13T05:00:41;8.15;;;3.10;;
43457;SDS011;29046;54.184;18.680;2023-10-13T05:03:35;9.38;;;2.55;;
43457;SDS011;29046;54.184;18.680;2023-10-13T05:06:39;14.23;;;3.63;;
43457;SDS011;29046;54.184;18.680;2023-10-13T05:11:59;11.23;;;3.38;;
43457;SDS011;29046;54.184;18.680;2023-10-13T05:14:45;9.20;;;3.10;;
43457;SDS011;29046;54.184;18.680;2023-10-13T05:17:32;8.68;;;3.63;;
43457;SDS011;29046;54.184;18.680;2023-10-13T05:20:18;11.30;;;3.53;;
43457;SDS011;29046;54.184;18.680;2023-10-13T05:23:04;20.50;;;3.95;;
43457;SDS011;29046;54.184;18.680;2023-10-13T05:25:50;8.20;;;2.90;;
43457;SDS011;29046;54.184;18.680;2023-10-13T05:28:37;11.65;;;3.22;;
43457;SDS011;29046;54.184;18.680;2023-10-13T05:31:23;11.18;;;3.70;;
43457;SDS011;29046;54.184;18.680;2023-10-13T05:34:10;13.55;;;2.78;;
43457;SDS011;29046;54.184;18.680;2023-10-13T05:36:56;14.43;;;3.75;;
43457;SDS011;29046;54.184;18.680;2023-10-13T05:39:42;16.08;;;3.40;;
43457;SDS011;29046;54.184;18.680;2023-10-13T05:42:29;6.10;;;2.63;;
43457;SDS011;29046;54.184;18.680;2023-10-13T05:45:15;11.38;;;4.45;;
43457;SDS011;29046;54.184;18.680;2023-10-13T05:47:51;11.88;;;2.90;;
43457;SDS011;29046;54.184;18.680;2023-10-13T05:50:38;16.38;;;4.32;;
43457;SDS011;29046;54.184;18.680;2023-10-13T05:53:25;19.27;;;7.10;;
43457;SDS011;29046;54.184;18.680;2023-10-13T05:56:11;14.00;;;3.67;;
43457;SDS011;29046;54.184;18.680;2023-10-13T05:58:57;9.70;;;3.90;;
43457;SDS011;29046;54.184;18.680;2023-10-13T06:01:44;7.82;;;3.30;;
43457;SDS011;29046;54.184;18.680;2023-10-13T06:04:30;5.70;;;2.53;;
43457;SDS011;29046;54.184;18.680;2023-10-13T06:07:16;9.45;;;2.80;;
43457;SDS011;29046;54.184;18.680;2023-10-13T06:10:07;10.07;;;3.47;;
43457;SDS011;29046;54.184;18.680;2023-10-13T06:12:54;15.07;;;4.43;;
43457;SDS011;29046;54.184;18.680;2023-10-13T06:15:40;13.10;;;3.00;;
43457;SDS011;29046;54.184;18.680;2023-10-13T06:18:27;12.15;;;3.58;;
43457;SDS011;29046;54.184;18.680;2023-10-13T06:21:13;10.15;;;3.40;;
43457;SDS011;29046;54.184;18.680;2023-10-13T06:23:59;10.95;;;3.28;;
43457;SDS011;29046;54.184;18.680;2023-10-13T06:26:49;8.65;;;2.60;;
43457;SDS011;29046;54.184;18.680;2023-10-13T06:29:35;10.82;;;3.92;;
43457;SDS011;29046;54.184;18.680;2023-10-13T06:32:02;10.48;;;3.38;;
43457;SDS011;29046;54.184;18.680;2023-10-13T06:34:40;9.00;;;4.05;;
43457;SDS011;29046;54.184;18.680;2023-10-13T06:37:12;12.40;;;4.35;;
43457;SDS011;29046;54.184;18.680;2023-10-13T06:40:10;11.48;;;4.13;;
43457;SDS011;29046;54.184;18.680;2023-10-13T06:42:53;11.50;;;4.20;;
43457;SDS011;29046;54.184;18.680;2023-10-13T06:45:43;12.25;;;4.00;;
43457;SDS011;29046;54.184;18.680;2023-10-13T06:48:17;10.35;;;3.28;;
43457;SDS011;29046;54.184;18.680;2023-10-13T06:50:50;11.68;;;2.95;;
43457;SDS011;29046;54.184;18.680;2023-10-13T06:53:22;9.95;;;4.53;;
43457;SDS011;29046;54.184;18.680;2023-10-13T06:55:52;17.80;;;4.40;;
43457;SDS011;29046;54.184;18.680;2023-10-13T06:58:25;13.95;;;4.50;;
43457;SDS011;29046;54.184;18.680;2023-10-13T07:00:53;10.27;;;3.70;;
43457;SDS011;29046;54.184;18.680;2023-10-13T07:03:22;15.10;;;4.88;;
43457;SDS011;29046;54.184;18.680;2023-10-13T07:05:50;15.52;;;5.93;;
43457;SDS011;29046;54.184;18.680;2023-10-13T07:08:18;17.02;;;4.53;;
43457;SDS011;29046;54.184;18.680;2023-10-13T07:10:54;12.23;;;4.43;;
43457;SDS011;29046;54.184;18.680;2023-10-13T07:13:29;9.13;;;4.30;;
43457;SDS011;29046;54.184;18.680;2023-10-13T07:15:59;15.38;;;5.28;;
43457;SDS011;29046;54.184;18.680;2023-10-13T07:18:35;17.00;;;4.85;;
43457;SDS011;29046;54.184;18.680;2023-10-13T07:21:04;11.02;;;4.43;;
43457;SDS011;29046;54.184;18.680;2023-10-13T07:23:36;14.57;;;6.18;;
43457;SDS011;29046;54.184;18.680;2023-10-13T07:26:05;16.63;;;5.38;;
43457;SDS011;29046;54.184;18.680;2023-10-13T07:28:35;15.05;;;6.10;;
43457;SDS011;29046;54.184;18.680;2023-10-13T07:31:03;16.92;;;6.18;;
43457;SDS011;29046;54.184;18.680;2023-10-13T07:33:31;13.80;;;4.85;;
43457;SDS011;29046;54.184;18.680;2023-10-13T07:35:59;10.38;;;4.55;;
43457;SDS011;29046;54.184;18.680;2023-10-13T07:38:27;9.95;;;4.10;;
43457;SDS011;29046;54.184;18.680;2023-10-13T07:40:58;12.48;;;4.57;;
43457;SDS011;29046;54.184;18.680;2023-10-13T07:43:33;9.10;;;3.75;;
43457;SDS011;29046;54.184;18.680;2023-10-13T07:46:04;12.07;;;3.00;;
43457;SDS011;29046;54.184;18.680;2023-10-13T07:48:39;8.07;;;3.35;;
43457;SDS011;29046;54.184;18.680;2023-10-13T07:51:08;12.93;;;4.43;;
43457;SDS011;29046;54.184;18.680;2023-10-13T07:53:45;15.32;;;4.25;;
43457;SDS011;29046;54.184;18.680;2023-10-13T07:56:16;9.65;;;4.35;;
43457;SDS011;29046;54.184;18.680;2023-10-13T07:58:46;12.77;;;3.47;;
43457;SDS011;29046;54.184;18.680;2023-10-13T08:01:19;10.38;;;3.80;;
43457;SDS011;29046;54.184;18.680;2023-10-13T08:03:47;11.23;;;3.75;;
43457;SDS011;29046;54.184;18.680;2023-10-13T08:06:31;15.27;;;3.53;;
43457;SDS011;29046;54.184;18.680;2023-10-13T08:09:01;12.45;;;3.72;;
43457;SDS011;29046;54.184;18.680;2023-10-13T08:11:35;14.57;;;4.45;;
43457;SDS011;29046;54.184;18.680;2023-10-13T08:14:07;11.00;;;3.75;;
43457;SDS011;29046;54.184;18.680;2023-10-13T08:17:08;10.18;;;4.20;;
43457;SDS011;29046;54.184;18.680;2023-10-13T08:19:39;11.02;;;4.47;;
43457;SDS011;29046;54.184;18.680;2023-10-13T08:22:09;8.38;;;4.47;;
43457;SDS011;29046;54.184;18.680;2023-10-13T08:24:51;10.50;;;3.63;;
43457;SDS011;29046;54.184;18.680;2023-10-13T08:27:19;10.25;;;4.55;;
43457;SDS011;29046;54.184;18.680;2023-10-13T08:29:59;16.38;;;6.38;;
43457;SDS011;29046;54.184;18.680;2023-10-13T08:33:05;10.90;;;4.85;;
43457;SDS011;29046;54.184;18.680;2023-10-13T08:35:50;9.30;;;3.45;;
43457;SDS011;29046;54.184;18.680;2023-10-13T08:38:21;17.73;;;4.00;;
43457;SDS011;29046;54.184;18.680;2023-10-13T08:40:58;12.82;;;4.15;;
43457;SDS011;29046;54.184;18.680;2023-10-13T08:43:45;11.23;;;4.43;;
43457;SDS011;29046;54.184;18.680;2023-10-13T08:46:20;10.25;;;3.83;;
43457;SDS011;29046;54.184;18.680;2023-10-13T08:49:14;14.60;;;4.28;;
43457;SDS011;29046;54.184;18.680;2023-10-13T08:51:45;7.22;;;2.92;;
43457;SDS011;29046;54.184;18.680;2023-10-13T08:54:17;15.88;;;3.95;;
43457;SDS011;29046;54.184;18.680;2023-10-13T08:57:01;8.00;;;2.83;;
43457;SDS011;29046;54.184;18.680;2023-10-13T08:59:59;9.50;;;3.85;;
43457;SDS011;29046;54.184;18.680;2023-10-13T09:02:47;14.68;;;3.90;;
43457;SDS011;29046;54.184;18.680;2023-10-13T09:05:47;9.52;;;3.80;;
43457;SDS011;29046;54.184;18.680;2023-10-13T09:08:28;10.27;;;3.55;;
43457;SDS011;29046;54.184;18.680;2023-10-13T09:11:03;12.32;;;3.85;;
43457;SDS011;29046;54.184;18.680;2023-10-13T09:13:40;10.20;;;3.10;;
43457;SDS011;29046;54.184;18.680;2023-10-13T09:16:12;15.15;;;4.00;;
43457;SDS011;29046;54.184;18.680;2023-10-13T09:18:48;8.82;;;3.58;;
43457;SDS011;29046;54.184;18.680;2023-10-13T09:21:19;11.40;;;2.55;;
43457;SDS011;29046;54.184;18.680;2023-10-13T09:24:13;8.40;;;2.70;;
43457;SDS011;29046;54.184;18.680;2023-10-13T09:26:49;13.27;;;3.13;;
43457;SDS011;29046;54.184;18.680;2023-10-13T09:29:22;7.00;;;2.17;;
43457;SDS011;29046;54.184;18.680;2023-10-13T09:31:58;8.52;;;2.72;;
43457;SDS011;29046;54.184;18.680;2023-10-13T09:34:27;11.13;;;2.92;;
43457;SDS011;29046;54.184;18.680;2023-10-13T09:37:01;8.82;;;2.83;;
43457;SDS011;29046;54.184;18.680;2023-10-13T09:39:33;8.18;;;2.45;;
43457;SDS011;29046;54.184;18.680;2023-10-13T09:42:15;10.77;;;2.88;;
43457;SDS011;29046;54.184;18.680;2023-10-13T09:44:45;7.68;;;2.65;;
43457;SDS011;29046;54.184;18.680;2023-10-13T09:47:20;10.20;;;2.40;;
43457;SDS011;29046;54.184;18.680;2023-10-13T09:49:59;7.75;;;1.98;;
43457;SDS011;29046;54.184;18.680;2023-10-13T09:52:32;12.95;;;3.15;;
43457;SDS011;29046;54.184;18.680;2023-10-13T09:55:03;8.95;;;2.45;;
43457;SDS011;29046;54.184;18.680;2023-10-13T09:57:36;9.98;;;2.83;;
43457;SDS011;29046;54.184;18.680;2023-10-13T10:00:09;12.65;;;2.53;;
43457;SDS011;29046;54.184;18.680;2023-10-13T10:02:56;12.02;;;4.00;;
43457;SDS011;29046;54.184;18.680;2023-10-13T10:05:25;8.32;;;3.13;;
43457;SDS011;29046;54.184;18.680;2023-10-13T10:07:56;13.85;;;3.30;;
43457;SDS011;29046;54.184;18.680;2023-10-13T10:10:47;11.60;;;3.60;;
43457;SDS011;29046;54.184;18.680;2023-10-13T10:13:21;10.73;;;3.35;;
43457;SDS011;29046;54.184;18.680;2023-10-13T10:15:49;7.47;;;2.53;;
43457;SDS011;29046;54.184;18.680;2023-10-13T10:18:19;9.27;;;3.65;;
43457;SDS011;29046;54.184;18.680;2023-10-13T10:21:02;9.43;;;2.95;;
43457;SDS011;29046;54.184;18.680;2023-10-13T10:23:34;17.02;;;3.63;;
43457;SDS011;29046;54.184;18.680;2023-10-13T10:26:15;8.20;;;2.72;;
43457;SDS011;29046;54.184;18.680;2023-10-13T10:28:46;11.52;;;3.55;;
43457;SDS011;29046;54.184;18.680;2023-10-13T10:31:14;19.88;;;7.43;;
43457;SDS011;29046;54.184;18.680;2023-10-13T10:33:47;15.00;;;6.78;;
43457;SDS011;29046;54.184;18.680;2023-10-13T10:36:28;16.80;;;6.20;;
43457;SDS011;29046;54.184;18.680;2023-10-13T10:38:57;14.80;;;3.35;;
43457;SDS011;29046;54.184;18.680;2023-10-13T10:41:30;9.98;;;2.58;;
43457;SDS011;29046;54.184;18.680;2023-10-13T10:44:19;12.65;;;2.90;;
43457;SDS011;29046;54.184;18.680;2023-10-13T10:46:52;13.65;;;2.88;;
43457;SDS011;29046;54.184;18.680;2023-10-13T10:49:28;9.02;;;3.05;;
43457;SDS011;29046;54.184;18.680;2023-10-13T10:52:00;11.32;;;3.08;;
43457;SDS011;29046;54.184;18.680;2023-10-13T10:54:30;10.35;;;4.78;;
43457;SDS011;29046;54.184;18.680;2023-10-13T10:56:59;6.32;;;2.95;;
43457;SDS011;29046;54.184;18.680;2023-10-13T10:59:45;10.68;;;3.20;;
43457;SDS011;29046;54.184;18.680;2023-10-13T11:02:12;9.18;;;3.25;;
43457;SDS011;29046;54.184;18.680;2023-10-13T11:04:50;6.90;;;3.10;;
43457;SDS011;29046;54.184;18.680;2023-10-13T11:07:24;9.55;;;2.65;;
43457;SDS011;29046;54.184;18.680;2023-10-13T11:09:54;11.50;;;3.30;;
43457;SDS011;29046;54.184;18.680;2023-10-13T11:12:33;8.95;;;3.20;;
43457;SDS011;29046;54.184;18.680;2023-10-13T11:17:49;8.52;;;3.53;;
43457;SDS011;29046;54.184;18.680;2023-10-13T11:20:26;7.97;;;3.55;;
43457;SDS011;29046;54.184;18.680;2023-10-13T11:23:01;11.90;;;3.45;;
43457;SDS011;29046;54.184;18.680;2023-10-13T11:25:32;8.02;;;3.38;;
43457;SDS011;29046;54.184;18.680;2023-10-13T11:30:44;14.15;;;4.75;;
43457;SDS011;29046;54.184;18.680;2023-10-13T11:33:18;10.90;;;4.45;;
43457;SDS011;29046;54.184;18.680;2023-10-13T11:35:56;11.98;;;4.80;;
43457;SDS011;29046;54.184;18.680;2023-10-13T11:38:30;10.73;;;4.38;;
43457;SDS011;29046;54.184;18.680;2023-10-13T11:41:08;11.30;;;4.20;;
43457;SDS011;29046;54.184;18.680;2023-10-13T11:43:43;15.07;;;4.25;;
43457;SDS011;29046;54.184;18.680;2023-10-13T11:46:15;12.27;;;4.78;;
43457;SDS011;29046;54.184;18.680;2023-10-13T11:51:14;11.05;;;4.93;;
43457;SDS011;29046;54.184;18.680;2023-10-13T11:53:50;10.88;;;3.75;;
43457;SDS011;29046;54.184;18.680;2023-10-13T11:56:22;15.32;;;4.95;;
43457;SDS011;29046;54.184;18.680;2023-10-13T11:58:50;18.90;;;4.60;;
43457;SDS011;29046;54.184;18.680;2023-10-13T12:01:18;10.15;;;4.18;;
43457;SDS011;29046;54.184;18.680;2023-10-13T12:03:47;12.13;;;5.05;;
43457;SDS011;29046;54.184;18.680;2023-10-13T12:06:35;14.18;;;5.25;;
43457;SDS011;29046;54.184;18.680;2023-10-13T12:11:46;9.43;;;4.75;;
43457;SDS011;29046;54.184;18.680;2023-10-13T12:14:15;9.70;;;4.65;;
43457;SDS011;29046;54.184;18.680;2023-10-13T12:16:55;15.68;;;5.70;;
43457;SDS011;29046;54.184;18.680;2023-10-13T12:19:23;14.52;;;4.63;;
43457;SDS011;29046;54.184;18.680;2023-10-13T12:21:54;13.55;;;5.57;;
43457;SDS011;29046;54.184;18.680;2023-10-13T12:24:27;8.80;;;4.30;;
43457;SDS011;29046;54.184;18.680;2023-10-13T12:27:18;6.75;;;3.17;;
43457;SDS011;29046;54.184;18.680;2023-10-13T12:29:46;13.27;;;5.75;;
43457;SDS011;29046;54.184;18.680;2023-10-13T12:32:14;12.43;;;5.72;;
43457;SDS011;29046;54.184;18.680;2023-10-13T12:34:47;11.18;;;5.90;;
43457;SDS011;29046;54.184;18.680;2023-10-13T12:37:25;15.68;;;7.32;;
43457;SDS011;29046;54.184;18.680;2023-10-13T12:40:14;14.68;;;5.72;;
43457;SDS011;29046;54.184;18.680;2023-10-13T12:43:00;14.18;;;5.85;;
43457;SDS011;29046;54.184;18.680;2023-10-13T12:45:47;16.42;;;6.07;;
43457;SDS011;29046;54.184;18.680;2023-10-13T12:48:34;18.27;;;6.70;;
43457;SDS011;29046;54.184;18.680;2023-10-13T12:51:21;12.93;;;6.00;;
43457;SDS011;29046;54.184;18.680;2023-10-13T12:53:58;19.25;;;7.68;;
43457;SDS011;29046;54.184;18.680;2023-10-13T12:56:47;14.85;;;7.22;;
43457;SDS011;29046;54.184;18.680;2023-10-13T12:59:14;15.77;;;7.55;;
43457;SDS011;29046;54.184;18.680;2023-10-13T13:01:43;19.80;;;8.35;;
43457;SDS011;29046;54.184;18.680;2023-10-13T13:04:11;17.80;;;8.38;;
43457;SDS011;29046;54.184;18.680;2023-10-13T13:06:48;19.73;;;9.40;;
43457;SDS011;29046;54.184;18.680;2023-10-13T13:09:16;25.95;;;7.93;;
43457;SDS011;29046;54.184;18.680;2023-10-13T13:11:52;17.15;;;8.63;;
43457;SDS011;29046;54.184;18.680;2023-10-13T13:14:32;16.70;;;9.10;;
43457;SDS011;29046;54.184;18.680;2023-10-13T13:17:01;17.15;;;9.10;;
43457;SDS011;29046;54.184;18.680;2023-10-13T13:19:36;23.52;;;10.48;;
43457;SDS011;29046;54.184;18.680;2023-10-13T13:22:06;20.52;;;9.88;;
43457;SDS011;29046;54.184;18.680;2023-10-13T13:24:39;21.15;;;10.20;;
43457;SDS011;29046;54.184;18.680;2023-10-13T13:27:15;19.10;;;10.48;;
43457;SDS011;29046;54.184;18.680;2023-10-13T13:29:49;18.38;;;8.85;;
43457;SDS011;29046;54.184;18.680;2023-10-13T13:32:17;25.50;;;11.80;;
43457;SDS011;29046;54.184;18.680;2023-10-13T13:34:52;23.88;;;11.88;;
43457;SDS011;29046;54.184;18.680;2023-10-13T13:37:45;20.30;;;10.45;;
43457;SDS011;29046;54.184;18.680;2023-10-13T13:40:13;27.02;;;11.43;;
43457;SDS011;29046;54.184;18.680;2023-10-13T13:42:42;25.67;;;14.00;;
43457;SDS011;29046;54.184;18.680;2023-10-13T13:45:17;25.33;;;13.93;;
43457;SDS011;29046;54.184;18.680;2023-10-13T13:47:48;28.90;;;13.35;;
43457;SDS011;29046;54.184;18.680;2023-10-13T13:50:23;27.58;;;14.77;;
43457;SDS011;29046;54.184;18.680;2023-10-13T13:52:52;27.65;;;15.63;;
43457;SDS011;29046;54.184;18.680;2023-10-13T13:55:23;38.95;;;15.25;;
43457;SDS011;29046;54.184;18.680;2023-10-13T13:57:51;32.33;;;15.95;;
43457;SDS011;29046;54.184;18.680;2023-10-13T14:00:19;29.52;;;15.63;;
43457;SDS011;29046;54.184;18.680;2023-10-13T14:03:06;30.55;;;15.27;;
43457;SDS011;29046;54.184;18.680;2023-10-13T14:05:40;30.70;;;14.82;;
43457;SDS011;29046;54.184;18.680;2023-10-13T14:08:08;32.22;;;17.00;;
43457;SDS011;29046;54.184;18.680;2023-10-13T14:10:38;33.75;;;17.90;;
43457;SDS011;29046;54.184;18.680;2023-10-13T14:13:25;34.42;;;19.23;;
43457;SDS011;29046;54.184;18.680;2023-10-13T14:16:13;43.08;;;17.95;;
43457;SDS011;29046;54.184;18.680;2023-10-13T14:18:46;35.60;;;18.60;;
43457;SDS011;29046;54.184;18.680;2023-10-13T14:21:15;35.15;;;18.38;;
43457;SDS011;29046;54.184;18.680;2023-10-13T14:23:46;32.47;;;18.15;;
43457;SDS011;29046;54.184;18.680;2023-10-13T14:26:15;37.13;;;16.65;;
43457;SDS011;29046;54.184;18.680;2023-10-13T14:28:52;35.88;;;17.63;;
43457;SDS011;29046;54.184;18.680;2023-10-13T14:31:32;32.58;;;17.08;;
43457;SDS011;29046;54.184;18.680;2023-10-13T14:34:00;35.00;;;18.50;;
43457;SDS011;29046;54.184;18.680;2023-10-13T14:36:28;40.03;;;19.15;;
43457;SDS011;29046;54.184;18.680;2023-10-13T14:38:56;34.40;;;19.58;;
43457;SDS011;29046;54.184;18.680;2023-10-13T14:41:23;33.30;;;18.25;;
43457;SDS011;29046;54.184;18.680;2023-10-13T14:43:51;36.15;;;18.85;;
43457;SDS011;29046;54.184;18.680;2023-10-13T14:46:19;33.33;;;18.63;;
43457;SDS011;29046;54.184;18.680;2023-10-13T14:48:53;32.53;;;18.95;;
43457;SDS011;29046;54.184;18.680;2023-10-13T14:51:21;33.08;;;19.35;;
43457;SDS011;29046;54.184;18.680;2023-10-13T14:53:49;36.15;;;18.92;;
43457;SDS011;29046;54.184;18.680;2023-10-13T14:56:20;37.83;;;19.60;;
43457;SDS011;29046;54.184;18.680;2023-10-13T14:58:51;34.03;;;19.98;;
43457;SDS011;29046;54.184;18.680;2023-10-13T15:01:21;43.60;;;19.13;;
43457;SDS011;29046;54.184;18.680;2023-10-13T15:03:49;37.15;;;20.80;;
43457;SDS011;29046;54.184;18.680;2023-10-13T15:06:21;34.53;;;20.35;;
43457;SDS011;29046;54.184;18.680;2023-10-13T15:08:57;38.22;;;20.48;;
43457;SDS011;29046;54.184;18.680;2023-10-13T15:11:26;33.50;;;20.40;;
43457;SDS011;29046;54.184;18.680;2023-10-13T15:13:54;35.15;;;19.60;;
43457;SDS011;29046;54.184;18.680;2023-10-13T15:16:25;35.65;;;22.27;;
43457;SDS011;29046;54.184;18.680;2023-10-13T15:18:53;33.67;;;19.60;;
43457;SDS011;29046;54.184;18.680;2023-10-13T15:21:22;35.03;;;18.23;;
43457;SDS011;29046;54.184;18.680;2023-10-13T15:23:53;38.33;;;22.45;;
43457;SDS011;29046;54.184;18.680;2023-10-13T15:28:53;43.13;;;23.15;;
43457;SDS011;29046;54.184;18.680;2023-10-13T15:31:23;34.13;;;19.35;;
43457;SDS011;29046;54.184;18.680;2023-10-13T15:34:03;39.00;;;24.10;;
43457;SDS011;29046;54.184;18.680;2023-10-13T15:36:33;42.67;;;25.88;;